createdAt,value
2023-05-19T00:00:51.078Z,100358.13
2023-05-19T00:02:54.521Z,100352.38
2023-05-19T00:04:58.582Z,100351.16
2023-05-19T00:07:02.627Z,100351.53
2023-05-19T00:09:07.566Z,100340.25
2023-05-19T00:11:11.570Z,100350.72
2023-05-19T00:13:14.941Z,100348.16
2023-05-19T00:15:20.440Z,100346.69
2023-05-19T00:17:24.049Z,100335.13
2023-05-19T00:19:27.119Z,100328.81
2023-05-19T00:21:31.698Z,100334.09
2023-05-19T00:23:34.551Z,100329.31
2023-05-19T00:25:37.772Z,100335.81
2023-05-19T00:27:40.820Z,100337.47
2023-05-19T00:29:44.090Z,100323.75
2023-05-19T00:31:48.482Z,100330.53
2023-05-19T00:33:52.502Z,100324.53
2023-05-19T00:35:55.438Z,100326.44
2023-05-19T00:37:58.455Z,100328.16
2023-05-19T00:40:01.443Z,100331.69
2023-05-19T00:42:06.181Z,100332.31
2023-05-19T00:44:09.119Z,100329.44
2023-05-19T00:46:12.155Z,100326.41
2023-05-19T00:48:16.892Z,100328.03
2023-05-19T00:50:19.992Z,100326.00
2023-05-19T00:52:23.341Z,100325.56
2023-05-19T00:54:28.374Z,100322.22
2023-05-19T00:56:32.222Z,100320.63
2023-05-19T00:58:37.338Z,100309.03
2023-05-19T01:00:40.507Z,100314.63
2023-05-19T01:02:44.064Z,100316.75
2023-05-19T01:04:49.264Z,100314.56
2023-05-19T01:06:55.247Z,100311.22
2023-05-19T01:08:58.573Z,100309.09
2023-05-19T01:11:01.815Z,100305.31
2023-05-19T01:13:05.967Z,100302.91
2023-05-19T01:15:10.434Z,100302.91
2023-05-19T01:17:20.971Z,100303.06
2023-05-19T01:19:41.382Z,100298.75
2023-05-19T01:22:23.372Z,100302.06
2023-05-19T01:25:00.257Z,100305.88
2023-05-19T01:27:24.660Z,100307.16
2023-05-19T01:29:42.902Z,100309.00
2023-05-19T01:31:50.763Z,100307.88
2023-05-19T01:33:55.094Z,100312.91
2023-05-19T01:36:03.593Z,100306.03
2023-05-19T01:38:09.548Z,100303.72
2023-05-19T01:40:13.521Z,100298.19
2023-05-19T01:42:18.326Z,100302.00
2023-05-19T01:44:22.525Z,100293.63
2023-05-19T01:46:25.998Z,100298.97
2023-05-19T01:48:31.028Z,100298.41
2023-05-19T01:50:34.939Z,100292.31
2023-05-19T01:52:38.226Z,100299.16
2023-05-19T01:54:41.234Z,100296.47
2023-05-19T01:56:50.537Z,100293.06
2023-05-19T01:58:59.528Z,100291.38
2023-05-19T02:01:11.782Z,100289.53
2023-05-19T02:03:27.198Z,100282.09
2023-05-19T02:05:38.842Z,100289.22
2023-05-19T02:07:50.948Z,100281.56
2023-05-19T02:10:02.958Z,100280.31
2023-05-19T02:12:14.626Z,100282.19
2023-05-19T02:14:21.614Z,100285.03
2023-05-19T02:16:29.224Z,100276.84
2023-05-19T02:18:33.620Z,100278.25
2023-05-19T02:20:38.705Z,100274.38
2023-05-19T02:22:43.121Z,100267.81
2023-05-19T02:24:48.063Z,100271.31
2023-05-19T02:26:52.130Z,100276.66
2023-05-19T02:28:55.354Z,100286.00
2023-05-19T02:31:00.410Z,100273.00
2023-05-19T02:33:07.041Z,100270.75
2023-05-19T02:35:10.474Z,100269.38
2023-05-19T02:37:15.807Z,100269.16
2023-05-19T02:39:18.731Z,100276.38
2023-05-19T02:41:22.670Z,100265.00
2023-05-19T02:43:25.783Z,100275.56
2023-05-19T02:45:29.105Z,100271.84
2023-05-19T02:47:35.458Z,100266.13
2023-05-19T02:49:40.214Z,100272.19
2023-05-19T02:51:43.503Z,100264.34
2023-05-19T02:53:48.357Z,100273.03
2023-05-19T02:55:51.788Z,100272.63
2023-05-19T02:57:54.995Z,100271.63
2023-05-19T02:59:58.062Z,100268.69
2023-05-19T03:02:02.345Z,100273.47
2023-05-19T03:04:05.903Z,100278.25
2023-05-19T03:06:09.634Z,100280.84
2023-05-19T03:08:12.813Z,100277.97
2023-05-19T03:10:17.253Z,100275.78
2023-05-19T03:12:20.211Z,100278.06
2023-05-19T03:14:24.884Z,100276.78
2023-05-19T03:16:28.470Z,100276.72
2023-05-19T03:18:32.108Z,100273.41
2023-05-19T03:20:35.218Z,100277.50
2023-05-19T03:22:38.628Z,100267.41
2023-05-19T03:24:41.606Z,100275.44
2023-05-19T03:26:46.308Z,100277.09
2023-05-19T03:28:49.617Z,100271.72
2023-05-19T03:30:52.546Z,100276.72
2023-05-19T03:33:01.961Z,100282.53
2023-05-19T03:35:05.975Z,100279.56
2023-05-19T03:37:11.014Z,100279.22
2023-05-19T03:39:15.876Z,100284.50
2023-05-19T03:41:19.765Z,100283.66
2023-05-19T03:43:24.486Z,100282.25
2023-05-19T03:45:34.806Z,100284.50
2023-05-19T03:47:50.358Z,100283.28
2023-05-19T03:50:14.156Z,100275.63
2023-05-19T03:52:28.440Z,100279.03
2023-05-19T03:54:55.289Z,100276.16
2023-05-19T03:56:58.579Z,100273.53
2023-05-19T03:59:03.058Z,100280.16
2023-05-19T04:01:06.043Z,100275.06
2023-05-19T04:03:09.338Z,100276.34
2023-05-19T04:05:12.434Z,100278.63
2023-05-19T04:07:15.604Z,100283.22
2023-05-19T04:09:19.763Z,100288.03
2023-05-19T04:11:22.755Z,100291.56
2023-05-19T04:13:25.958Z,100290.63
2023-05-19T04:15:30.705Z,100297.63
2023-05-19T04:17:33.720Z,100289.03
2023-05-19T04:19:36.827Z,100297.84
2023-05-19T04:21:41.182Z,100291.06
2023-05-19T04:23:44.322Z,100289.44
2023-05-19T04:25:49.096Z,100295.59
2023-05-19T04:27:53.292Z,100293.00
2023-05-19T04:29:56.436Z,100296.13
2023-05-19T04:32:01.385Z,100300.47
2023-05-19T04:34:04.613Z,100298.78
2023-05-19T04:36:10.836Z,100295.66
2023-05-19T04:38:19.218Z,100299.88
2023-05-19T04:40:24.439Z,100295.75
2023-05-19T04:42:30.943Z,100297.00
2023-05-19T04:44:40.418Z,100296.19
2023-05-19T04:46:45.542Z,100293.41
2023-05-19T04:48:50.571Z,100293.41
2023-05-19T04:50:53.513Z,100291.81
2023-05-19T04:52:56.920Z,100296.63
2023-05-19T04:55:01.566Z,100305.06
2023-05-19T04:57:05.165Z,100311.63
2023-05-19T04:59:11.449Z,100304.16
2023-05-19T05:01:16.431Z,100302.31
2023-05-19T05:03:19.639Z,100301.53
2023-05-19T05:05:24.906Z,100299.94
2023-05-19T05:07:28.937Z,100292.66
2023-05-19T05:09:33.436Z,100295.34
2023-05-19T05:11:39.084Z,100291.88
2023-05-19T05:13:42.554Z,100285.09
2023-05-19T05:15:46.502Z,100296.13
2023-05-19T05:17:50.461Z,100283.34
2023-05-19T05:19:54.578Z,100288.97
2023-05-19T05:21:59.654Z,100295.84
2023-05-19T05:24:03.160Z,100299.03
2023-05-19T05:26:17.344Z,100289.38
2023-05-19T05:28:21.680Z,100294.03
2023-05-19T05:30:25.110Z,100296.50
2023-05-19T05:32:29.543Z,100296.56
2023-05-19T05:34:32.976Z,100287.06
2023-05-19T05:36:36.008Z,100293.13
2023-05-19T05:38:40.564Z,100285.91
2023-05-19T05:40:43.661Z,100287.44
2023-05-19T05:42:46.843Z,100298.03
2023-05-19T05:44:49.821Z,100293.97
2023-05-19T05:46:53.871Z,100305.97
2023-05-19T05:48:58.329Z,100306.34
2023-05-19T05:51:01.764Z,100310.69
2023-05-19T05:53:09.342Z,100311.66
2023-05-19T05:55:20.647Z,100301.16
2023-05-19T05:57:24.859Z,100300.13
2023-05-19T05:59:27.844Z,100314.78
2023-05-19T06:01:32.183Z,100313.00
2023-05-19T06:03:38.532Z,100312.88
2023-05-19T06:05:43.581Z,100311.03
2023-05-19T06:07:47.035Z,100311.03
2023-05-19T06:09:57.125Z,100316.19
2023-05-19T06:12:01.881Z,100319.31
2023-05-19T06:14:10.305Z,100318.50
2023-05-19T06:16:27.031Z,100326.31
2023-05-19T06:18:30.333Z,100321.81
2023-05-19T06:20:33.932Z,100327.00
2023-05-19T06:22:38.201Z,100330.78
2023-05-19T06:24:42.341Z,100334.44
2023-05-19T06:26:46.289Z,100330.50
2023-05-19T06:28:50.842Z,100325.09
2023-05-19T06:30:53.924Z,100322.91
2023-05-19T06:33:04.387Z,100325.63
2023-05-19T06:35:09.196Z,100329.16
2023-05-19T06:37:12.380Z,100323.19
2023-05-19T06:39:15.387Z,100321.13
2023-05-19T06:41:18.522Z,100316.81
2023-05-19T06:43:23.411Z,100312.28
2023-05-19T06:45:36.707Z,100321.34
2023-05-19T06:47:44.883Z,100318.28
2023-05-19T06:49:51.994Z,100318.09
2023-05-19T06:51:54.983Z,100315.78
2023-05-19T06:53:58.247Z,100322.19
2023-05-19T06:56:01.336Z,100321.56
2023-05-19T06:58:08.849Z,100319.34
2023-05-19T07:00:14.597Z,100316.00
2023-05-19T07:02:24.108Z,100310.84
2023-05-19T07:04:27.664Z,100307.53
2023-05-19T07:06:32.307Z,100314.34
2023-05-19T07:08:37.563Z,100305.03
2023-05-19T07:10:42.671Z,100313.75
2023-05-19T07:12:48.877Z,100310.19
2023-05-19T07:14:53.704Z,100305.03
2023-05-19T07:16:57.033Z,100305.22
2023-05-19T07:19:01.939Z,100310.63
2023-05-19T07:21:05.110Z,100309.78
2023-05-19T07:23:08.095Z,100310.22
2023-05-19T07:25:11.920Z,100318.50
2023-05-19T07:27:15.556Z,100312.47
2023-05-19T07:29:18.557Z,100314.38
2023-05-19T07:31:21.552Z,100326.78
2023-05-19T07:33:24.518Z,100316.81
2023-05-19T07:35:29.003Z,100322.63
2023-05-19T07:37:31.921Z,100326.78
2023-05-19T07:39:36.293Z,100328.00
2023-05-19T07:41:39.264Z,100326.75
2023-05-19T07:43:42.582Z,100325.31
2023-05-19T07:45:45.672Z,100319.72
2023-05-19T07:47:48.900Z,100313.09
2023-05-19T07:49:52.057Z,100321.56
2023-05-19T07:51:56.916Z,100331.16
2023-05-19T07:53:59.991Z,100328.63
2023-05-19T07:56:03.500Z,100327.59
2023-05-19T07:58:06.436Z,100328.44
2023-05-19T08:00:12.873Z,100325.94
2023-05-19T08:02:16.925Z,100329.03
2023-05-19T08:04:20.224Z,100323.41
2023-05-19T08:06:23.252Z,100338.53
2023-05-19T08:08:27.869Z,100327.56
2023-05-19T08:10:31.197Z,100328.59
2023-05-19T08:12:34.498Z,100329.03
2023-05-19T08:14:37.774Z,100326.50
2023-05-19T08:16:42.606Z,100329.03
2023-05-19T08:18:45.801Z,100327.78
2023-05-19T08:20:48.963Z,100326.88
2023-05-19T08:22:52.096Z,100328.34
2023-05-19T08:24:57.226Z,100335.81
2023-05-19T08:27:00.378Z,100331.66
2023-05-19T08:29:03.489Z,100330.00
2023-05-19T08:31:06.591Z,100331.44
2023-05-19T08:33:09.644Z,100322.16
2023-05-19T08:35:12.795Z,100335.81
2023-05-19T08:37:16.110Z,100328.56
2023-05-19T08:39:24.420Z,100329.19
2023-05-19T08:41:29.179Z,100325.25
2023-05-19T08:43:32.319Z,100326.28
2023-05-19T08:45:35.568Z,100326.19
2023-05-19T08:47:38.880Z,100333.81
2023-05-19T08:49:45.666Z,100336.50
2023-05-19T08:51:56.274Z,100330.31
2023-05-19T08:54:05.079Z,100330.34
2023-05-19T08:56:12.317Z,100325.97
2023-05-19T08:58:20.764Z,100329.66
2023-05-19T09:00:24.109Z,100336.53
2023-05-19T09:02:28.425Z,100335.75
2023-05-19T09:04:32.718Z,100328.78
2023-05-19T09:06:35.983Z,100333.44
2023-05-19T09:08:39.139Z,100337.13
2023-05-19T09:10:42.274Z,100331.56
2023-05-19T09:12:46.821Z,100327.28
2023-05-19T09:14:51.582Z,100332.19
2023-05-19T09:16:54.902Z,100337.31
2023-05-19T09:18:58.689Z,100328.09
2023-05-19T09:21:03.370Z,100328.72
2023-05-19T09:23:06.596Z,100333.34
2023-05-19T09:25:19.642Z,100326.41
2023-05-19T09:27:25.994Z,100332.00
2023-05-19T09:29:29.023Z,100333.03
2023-05-19T09:31:34.530Z,100334.72
2023-05-19T09:33:38.583Z,100333.56
2023-05-19T09:35:47.255Z,100336.81
2023-05-19T09:37:50.140Z,100334.59
2023-05-19T09:39:53.974Z,100331.53
2023-05-19T09:41:59.071Z,100329.16
2023-05-19T09:44:02.016Z,100334.22
2023-05-19T09:46:09.212Z,100327.84
2023-05-19T09:48:16.908Z,100328.69
2023-05-19T09:50:19.821Z,100337.72
2023-05-19T09:52:23.424Z,100322.81
2023-05-19T09:54:32.575Z,100330.88
2023-05-19T09:56:36.143Z,100326.84
2023-05-19T09:58:42.948Z,100325.19
2023-05-19T10:00:47.179Z,100338.00
2023-05-19T10:02:51.305Z,100327.38
2023-05-19T10:04:56.514Z,100327.47
2023-05-19T10:07:00.241Z,100332.47
2023-05-19T10:09:04.943Z,100324.28
2023-05-19T10:11:08.971Z,100320.19
2023-05-19T10:13:13.064Z,100317.22
2023-05-19T10:15:17.203Z,100315.19
2023-05-19T10:17:20.543Z,100312.31
2023-05-19T10:19:24.582Z,100311.97
2023-05-19T10:21:29.492Z,100310.53
2023-05-19T10:23:32.473Z,100307.72
2023-05-19T10:25:36.963Z,100303.91
2023-05-19T10:27:46.534Z,100304.44
2023-05-19T10:29:51.324Z,100299.66
2023-05-19T10:31:56.222Z,100308.13
2023-05-19T10:34:23.994Z,100308.66
2023-05-19T10:36:43.233Z,100299.06
2023-05-19T10:38:53.974Z,100307.97
2023-05-19T10:41:05.418Z,100310.59
2023-05-19T10:43:18.221Z,100309.38
2023-05-19T10:45:24.423Z,100297.97
2023-05-19T10:47:28.022Z,100306.97
2023-05-19T10:49:36.192Z,100304.06
2023-05-19T10:51:40.631Z,100300.56
2023-05-19T10:53:47.056Z,100301.66
2023-05-19T10:55:56.371Z,100301.97
2023-05-19T10:58:00.792Z,100295.00
2023-05-19T11:00:11.915Z,100297.47
2023-05-19T11:02:40.359Z,100291.81
2023-05-19T11:04:51.075Z,100297.63
2023-05-19T11:06:58.169Z,100303.34
2023-05-19T11:09:10.660Z,100300.38
2023-05-19T11:11:15.073Z,100300.31
2023-05-19T11:13:22.756Z,100301.69
2023-05-19T11:15:28.026Z,100306.78
2023-05-19T11:17:33.087Z,100302.75
2023-05-19T11:19:36.618Z,100303.72
2023-05-19T11:21:44.016Z,100305.72
2023-05-19T11:23:48.382Z,100301.06
2023-05-19T11:25:54.187Z,100300.41
2023-05-19T11:27:58.297Z,100302.75
2023-05-19T11:30:02.576Z,100298.81
2023-05-19T11:32:08.085Z,100307.38
2023-05-19T11:34:11.350Z,100306.91
2023-05-19T11:36:16.956Z,100300.66
2023-05-19T11:38:20.326Z,100307.81
2023-05-19T11:40:25.655Z,100299.03
2023-05-19T11:42:28.719Z,100312.25
2023-05-19T11:44:32.708Z,100309.34
2023-05-19T11:46:35.848Z,100299.25
2023-05-19T11:48:39.144Z,100309.63
2023-05-19T11:50:42.718Z,100304.72
2023-05-19T11:52:45.567Z,100308.22
2023-05-19T11:54:49.300Z,100303.88
2023-05-19T11:56:53.722Z,100310.19
2023-05-19T11:58:56.658Z,100308.22
2023-05-19T12:01:04.559Z,100313.75
2023-05-19T12:03:08.472Z,100310.78
2023-05-19T12:05:19.450Z,100307.19
2023-05-19T12:07:24.542Z,100303.41
2023-05-19T12:09:29.591Z,100306.78
2023-05-19T12:11:32.456Z,100308.47
2023-05-19T12:13:36.886Z,100299.06
2023-05-19T12:15:39.921Z,100305.53
2023-05-19T12:17:43.006Z,100297.28
2023-05-19T12:19:47.482Z,100305.22
2023-05-19T12:21:51.412Z,100291.47
2023-05-19T12:23:54.842Z,100289.34
2023-05-19T12:25:58.444Z,100294.59
2023-05-19T12:28:05.130Z,100286.75
2023-05-19T12:30:12.084Z,100286.88
2023-05-19T12:32:15.834Z,100293.41
2023-05-19T12:34:19.237Z,100287.47
2023-05-19T12:36:25.176Z,100286.06
2023-05-19T12:38:28.164Z,100277.88
2023-05-19T12:40:31.472Z,100279.66
2023-05-19T12:42:36.096Z,100279.50
2023-05-19T12:44:42.985Z,100275.75
2023-05-19T12:46:47.355Z,100287.06
2023-05-19T12:48:50.491Z,100281.97
2023-05-19T12:50:56.062Z,100278.16
2023-05-19T12:53:00.244Z,100277.31
2023-05-19T12:55:08.551Z,100274.22
2023-05-19T12:57:11.918Z,100275.66
2023-05-19T12:59:34.716Z,100272.59
2023-05-19T13:01:41.202Z,100272.28
2023-05-19T13:03:46.381Z,100277.59
2023-05-19T13:05:50.894Z,100279.34
2023-05-19T13:07:58.113Z,100268.78
2023-05-19T13:10:01.214Z,100270.66
2023-05-19T13:12:04.985Z,100269.00
2023-05-19T13:14:08.088Z,100268.53
2023-05-19T13:16:11.033Z,100271.25
2023-05-19T13:18:14.733Z,100271.94
2023-05-19T13:20:19.441Z,100270.75
2023-05-19T13:22:22.595Z,100265.00
2023-05-19T13:24:25.786Z,100267.25
2023-05-19T13:26:28.926Z,100264.31
2023-05-19T13:28:32.036Z,100264.97
2023-05-19T13:30:36.610Z,100269.38
2023-05-19T13:32:39.945Z,100273.25
2023-05-19T13:34:42.958Z,100266.66
2023-05-19T13:36:49.276Z,100269.59
2023-05-19T13:38:52.335Z,100262.78
2023-05-19T13:40:55.246Z,100266.00
2023-05-19T13:42:58.374Z,100258.25
2023-05-19T13:45:01.496Z,100260.81
2023-05-19T13:47:05.058Z,100260.22
2023-05-19T13:49:08.157Z,100253.88
2023-05-19T13:51:11.304Z,100269.13
2023-05-19T13:53:15.939Z,100268.13
2023-05-19T13:55:19.368Z,100267.03
2023-05-19T13:57:22.977Z,100263.88
2023-05-19T13:59:26.698Z,100262.22
2023-05-19T14:01:29.841Z,100258.31
2023-05-19T14:03:32.910Z,100258.47
2023-05-19T14:05:36.206Z,100254.13
2023-05-19T14:07:39.270Z,100252.84
2023-05-19T14:09:43.738Z,100256.84
2023-05-19T14:11:47.039Z,100257.56
2023-05-19T14:13:52.673Z,100256.50
2023-05-19T14:15:56.257Z,100258.00
2023-05-19T14:17:59.344Z,100261.19
2023-05-19T14:20:02.582Z,100258.94
2023-05-19T14:22:05.975Z,100262.59
2023-05-19T14:24:09.055Z,100270.19
2023-05-19T14:26:13.471Z,100270.03
2023-05-19T14:28:16.535Z,100269.13
2023-05-19T14:30:19.830Z,100275.31
2023-05-19T14:32:23.006Z,100265.13
2023-05-19T14:34:26.362Z,100267.16
2023-05-19T14:36:29.512Z,100273.94
2023-05-19T14:38:32.613Z,100271.97
2023-05-19T14:40:37.642Z,100268.28
2023-05-19T14:42:42.041Z,100267.94
2023-05-19T14:44:45.703Z,100267.97
2023-05-19T14:46:48.845Z,100274.59
2023-05-19T14:48:51.901Z,100274.59
2023-05-19T14:50:54.952Z,100273.75
2023-05-19T14:52:58.506Z,100273.88
2023-05-19T14:55:01.564Z,100277.53
2023-05-19T14:57:07.535Z,100276.94
2023-05-19T14:59:11.984Z,100279.31
2023-05-19T15:01:15.003Z,100280.78
2023-05-19T15:03:18.024Z,100274.78
2023-05-19T15:05:22.064Z,100273.34
2023-05-19T15:07:25.147Z,100279.13
2023-05-19T15:09:28.279Z,100273.88
2023-05-19T15:11:31.433Z,100274.09
2023-05-19T15:13:34.873Z,100271.47
2023-05-19T15:15:39.769Z,100269.28
2023-05-19T15:17:43.059Z,100272.75
2023-05-19T15:19:46.304Z,100267.81
2023-05-19T15:21:50.950Z,100267.22
2023-05-19T15:23:53.904Z,100261.56
2023-05-19T15:25:57.025Z,100262.69
2023-05-19T15:28:00.152Z,100263.28
2023-05-19T15:30:03.184Z,100262.22
2023-05-19T15:32:09.634Z,100263.97
2023-05-19T15:34:12.332Z,100266.09
2023-05-19T15:36:16.878Z,100261.72
2023-05-19T15:38:20.427Z,100260.53
2023-05-19T15:40:24.437Z,100254.13
2023-05-19T15:42:27.826Z,100257.22
2023-05-19T15:44:31.527Z,100256.25
2023-05-19T15:46:35.133Z,100256.25
2023-05-19T15:48:39.628Z,100260.19
2023-05-19T15:50:42.814Z,100255.59
2023-05-19T15:52:46.042Z,100261.34
2023-05-19T15:54:49.233Z,100254.66
2023-05-19T15:56:52.117Z,100258.31
2023-05-19T15:58:55.150Z,100257.41
2023-05-19T16:00:58.244Z,100254.31
2023-05-19T16:03:01.878Z,100250.66
2023-05-19T16:05:06.816Z,100252.66
2023-05-19T16:07:09.948Z,100254.84
2023-05-19T16:09:12.829Z,100256.41
2023-05-19T16:11:16.096Z,100252.63
2023-05-19T16:13:19.041Z,100256.06
2023-05-19T16:15:22.285Z,100259.81
2023-05-19T16:17:25.403Z,100258.53
2023-05-19T16:19:28.482Z,100266.38
2023-05-19T16:21:33.029Z,100262.53
2023-05-19T16:23:36.083Z,100261.66
2023-05-19T16:25:39.132Z,100262.44
2023-05-19T16:27:42.309Z,100263.78
2023-05-19T16:29:45.206Z,100264.00
2023-05-19T16:31:48.256Z,100268.97
2023-05-19T16:33:51.294Z,100270.53
2023-05-19T16:35:54.375Z,100269.19
2023-05-19T16:37:58.957Z,100261.94
2023-05-19T16:40:02.182Z,100266.50
2023-05-19T16:42:05.840Z,100265.16
2023-05-19T16:44:08.854Z,100263.03
2023-05-19T16:46:12.523Z,100256.88
2023-05-19T16:48:15.738Z,100261.81
2023-05-19T16:50:18.829Z,100260.19
2023-05-19T16:52:22.029Z,100259.59
2023-05-19T16:54:26.522Z,100265.59
2023-05-19T16:56:29.618Z,100261.34
2023-05-19T16:58:32.957Z,100262.59
2023-05-19T17:00:36.277Z,100266.28
2023-05-19T17:02:39.384Z,100259.97
2023-05-19T17:04:42.403Z,100272.22
2023-05-19T17:06:46.550Z,100265.38
2023-05-19T17:08:49.708Z,100271.25
2023-05-19T17:10:54.414Z,100280.56
2023-05-19T17:12:57.603Z,100267.66
2023-05-19T17:15:00.688Z,100273.78
2023-05-19T17:17:04.164Z,100272.75
2023-05-19T17:19:07.251Z,100279.59
2023-05-19T17:21:10.296Z,100271.50
2023-05-19T17:23:13.197Z,100265.25
2023-05-19T17:25:17.125Z,100275.81
2023-05-19T17:27:21.649Z,100279.00
2023-05-19T17:29:24.998Z,100282.50
2023-05-19T17:31:28.005Z,100279.59
2023-05-19T17:33:31.063Z,100277.63
2023-05-19T17:35:34.271Z,100281.03
2023-05-19T17:37:37.932Z,100285.22
2023-05-19T17:39:41.298Z,100277.53
2023-05-19T17:41:44.613Z,100273.13
2023-05-19T17:43:49.155Z,100273.72
2023-05-19T17:45:52.345Z,100268.19
2023-05-19T17:47:55.294Z,100269.00
2023-05-19T17:50:00.944Z,100271.09
2023-05-19T17:52:04.723Z,100268.41
2023-05-19T17:54:08.388Z,100270.66
2023-05-19T17:56:12.963Z,100270.56
2023-05-19T17:58:16.865Z,100269.66
2023-05-19T18:00:22.725Z,100272.84
2023-05-19T18:02:26.654Z,100269.31
2023-05-19T18:04:30.151Z,100272.66
2023-05-19T18:06:33.384Z,100274.25
2023-05-19T18:08:38.031Z,100270.53
2023-05-19T18:10:42.572Z,100272.81
2023-05-19T18:12:45.723Z,100273.47
2023-05-19T18:14:50.394Z,100272.19
2023-05-19T18:16:54.949Z,100270.25
2023-05-19T18:18:58.047Z,100282.56
2023-05-19T18:21:01.081Z,100278.16
2023-05-19T18:23:04.211Z,100289.03
2023-05-19T18:25:08.044Z,100280.91
2023-05-19T18:27:11.104Z,100282.47
2023-05-19T18:29:14.955Z,100287.97
2023-05-19T18:31:20.060Z,100291.41
2023-05-19T18:33:25.889Z,100296.66
2023-05-19T18:35:29.973Z,100296.09
2023-05-19T18:37:32.925Z,100303.44
2023-05-19T18:39:36.113Z,100305.78
2023-05-19T18:41:41.703Z,100303.50
2023-05-19T18:43:45.124Z,100303.56
2023-05-19T18:45:48.306Z,100310.38
2023-05-19T18:47:51.388Z,100309.22
2023-05-19T18:49:56.207Z,100310.06
2023-05-19T18:51:59.213Z,100314.84
2023-05-19T18:54:02.413Z,100316.47
2023-05-19T18:56:06.056Z,100319.16
2023-05-19T18:58:09.099Z,100315.25
2023-05-19T19:00:14.176Z,100319.41
2023-05-19T19:02:17.173Z,100320.13
2023-05-19T19:04:20.396Z,100321.38
2023-05-19T19:06:24.865Z,100329.25
2023-05-19T19:08:27.825Z,100322.19
2023-05-19T19:10:34.964Z,100318.22
2023-05-19T19:12:38.264Z,100320.53
2023-05-19T19:14:41.303Z,100324.09
2023-05-19T19:16:44.473Z,100320.16
2023-05-19T19:18:47.599Z,100323.06
2023-05-19T19:20:50.609Z,100319.75
2023-05-19T19:22:55.333Z,100316.44
2023-05-19T19:24:58.392Z,100316.44
2023-05-19T19:27:01.492Z,100318.91
2023-05-19T19:29:04.511Z,100321.44
2023-05-19T19:31:07.499Z,100317.06
2023-05-19T19:33:10.592Z,100322.25
2023-05-19T19:35:13.490Z,100316.06
2023-05-19T19:37:16.924Z,100311.69
2023-05-19T19:39:21.466Z,100320.78
2023-05-19T19:41:26.425Z,100326.84
2023-05-19T19:43:29.584Z,100330.34
2023-05-19T19:45:34.997Z,100326.00
2023-05-19T19:47:37.959Z,100327.50
2023-05-19T19:49:41.376Z,100327.72
2023-05-19T19:51:44.429Z,100323.16
2023-05-19T19:53:47.294Z,100320.69
2023-05-19T19:55:58.713Z,100327.56
2023-05-19T19:58:01.657Z,100327.97
2023-05-19T20:00:08.666Z,100326.13
2023-05-19T20:02:12.349Z,100328.38
2023-05-19T20:04:15.771Z,100329.03
2023-05-19T20:06:18.782Z,100327.59
2023-05-19T20:08:21.744Z,100325.50
2023-05-19T20:10:24.691Z,100330.88
2023-05-19T20:12:30.469Z,100327.34
2023-05-19T20:14:33.516Z,100325.91
2023-05-19T20:16:36.580Z,100330.06
2023-05-19T20:18:39.914Z,100328.84
2023-05-19T20:20:43.220Z,100328.66
2023-05-19T20:22:46.313Z,100327.03
2023-05-19T20:24:49.304Z,100325.38
2023-05-19T20:26:52.289Z,100322.06
2023-05-19T20:28:56.621Z,100328.28
2023-05-19T20:30:59.614Z,100322.06
2023-05-19T20:33:02.953Z,100324.97
2023-05-19T20:35:07.123Z,100322.06
2023-05-19T20:37:09.984Z,100321.88
2023-05-19T20:39:13.083Z,100326.03
2023-05-19T20:41:15.986Z,100327.25
2023-05-19T20:43:18.911Z,100327.44
2023-05-19T20:45:23.417Z,100332.22
2023-05-19T20:47:27.754Z,100328.06
2023-05-19T20:49:32.133Z,100328.06
2023-05-19T20:51:35.414Z,100325.81
2023-05-19T20:53:38.402Z,100332.03
2023-05-19T20:55:41.537Z,100328.13
2023-05-19T20:57:45.253Z,100325.19
2023-05-19T20:59:48.245Z,100326.81
2023-05-19T21:01:52.588Z,100327.06
2023-05-19T21:03:55.777Z,100317.94
2023-05-19T21:05:59.049Z,100324.34
2023-05-19T21:08:03.227Z,100329.53
2023-05-19T21:10:07.704Z,100327.66
2023-05-19T21:12:10.908Z,100331.41
2023-05-19T21:14:13.968Z,100336.16
2023-05-19T21:16:17.098Z,100332.03
2023-05-19T21:18:21.654Z,100335.13
2023-05-19T21:20:24.974Z,100337.25
2023-05-19T21:22:27.996Z,100333.28
2023-05-19T21:24:31.430Z,100335.56
2023-05-19T21:26:34.557Z,100342.84
2023-05-19T21:28:37.567Z,100332.25
2023-05-19T21:30:40.538Z,100339.91
2023-05-19T21:32:43.610Z,100338.91
2023-05-19T21:34:48.275Z,100339.53
2023-05-19T21:36:51.327Z,100341.59
2023-05-19T21:38:54.334Z,100342.44
2023-05-19T21:40:57.318Z,100341.78
2023-05-19T21:43:00.186Z,100345.34
2023-05-19T21:45:03.316Z,100344.50
2023-05-19T21:47:07.155Z,100340.97
2023-05-19T21:49:10.119Z,100344.75
2023-05-19T21:51:14.558Z,100343.28
2023-05-19T21:53:17.536Z,100339.97
2023-05-19T21:55:22.327Z,100329.41
2023-05-19T21:57:25.629Z,100333.34
2023-05-19T21:59:28.897Z,100323.59
2023-05-19T22:01:32.566Z,100322.56
2023-05-19T22:03:35.646Z,100321.09
2023-05-19T22:05:39.026Z,100319.88
2023-05-19T22:07:43.597Z,100319.63
2023-05-19T22:09:48.842Z,100310.72
2023-05-19T22:11:52.183Z,100311.34
2023-05-19T22:13:55.155Z,100302.44
2023-05-19T22:15:58.165Z,100308.47
2023-05-19T22:18:01.569Z,100301.63
2023-05-19T22:20:05.257Z,100302.25
2023-05-19T22:22:14.318Z,100312.63
2023-05-19T22:24:19.304Z,100308.91
2023-05-19T22:26:22.515Z,100311.38
2023-05-19T22:28:25.760Z,100307.63
2023-05-19T22:30:28.916Z,100312.41
2023-05-19T22:32:32.582Z,100317.41
2023-05-19T22:34:35.609Z,100318.41
2023-05-19T22:36:38.594Z,100315.31
2023-05-19T22:38:41.664Z,100320.50
2023-05-19T22:40:46.257Z,100313.44
2023-05-19T22:42:49.318Z,100318.00
2023-05-19T22:44:52.271Z,100315.72
2023-05-19T22:46:55.252Z,100319.88
2023-05-19T22:48:58.212Z,100318.41
2023-05-19T22:51:01.244Z,100314.28
2023-05-19T22:53:04.109Z,100317.41
2023-05-19T22:55:08.158Z,100320.94
2023-05-19T22:57:12.592Z,100311.22
2023-05-19T22:59:18.165Z,100305.16
2023-05-19T23:01:21.048Z,100312.66
2023-05-19T23:03:24.041Z,100310.78
2023-05-19T23:05:26.940Z,100308.88
2023-05-19T23:07:29.972Z,100308.25
2023-05-19T23:09:32.950Z,100297.09
2023-05-19T23:11:36.351Z,100303.13
2023-05-19T23:13:41.045Z,100298.16
2023-05-19T23:15:44.114Z,100300.22
2023-05-19T23:17:47.013Z,100295.66
2023-05-19T23:19:50.039Z,100284.66
2023-05-19T23:21:52.972Z,100286.53
2023-05-19T23:23:56.240Z,100284.84
2023-05-19T23:25:59.544Z,100285.28
2023-05-19T23:28:02.533Z,100284.66
2023-05-19T23:30:08.473Z,100284.88
2023-05-19T23:32:11.509Z,100280.31
2023-05-19T23:34:14.410Z,100277.81
2023-05-19T23:36:18.051Z,100283.00
2023-05-19T23:38:21.376Z,100292.13
2023-05-19T23:40:24.253Z,100289.66
2023-05-19T23:42:27.134Z,100291.72